sensor_id;sensor_type;location;lat;lon;timestamp;temperature;humidity
19252;DHT22;9760;50.944;5.304;2023-09-08T00:01:53;20.40;99.90
19252;DHT22;9760;50.944;5.304;2023-09-08T00:04:18;20.40;99.90
19252;DHT22;9760;50.944;5.304;2023-09-08T00:06:46;20.20;99.90
19252;DHT22;9760;50.944;5.304;2023-09-08T00:09:12;20.10;99.90
19252;DHT22;9760;50.944;5.304;2023-09-08T00:11:37;20.10;99.90
19252;DHT22;9760;50.944;5.304;2023-09-08T00:14:03;20.10;99.90
19252;DHT22;9760;50.944;5.304;2023-09-08T00:16:29;20.20;99.90
19252;DHT22;9760;50.944;5.304;2023-09-08T00:18:56;20.30;99.90
19252;DHT22;9760;50.944;5.304;2023-09-08T00:21:23;20.30;99.90
19252;DHT22;9760;50.944;5.304;2023-09-08T00:23:49;20.10;99.90
19252;DHT22;9760;50.944;5.304;2023-09-08T00:26:14;20.00;99.90
19252;DHT22;9760;50.944;5.304;2023-09-08T00:28:40;19.80;99.90
19252;DHT22;9760;50.944;5.304;2023-09-08T00:31:05;19.90;99.90
19252;DHT22;9760;50.944;5.304;2023-09-08T00:33:31;19.80;99.90
19252;DHT22;9760;50.944;5.304;2023-09-08T00:35:57;19.80;99.90
19252;DHT22;9760;50.944;5.304;2023-09-08T00:38:24;19.80;99.90
19252;DHT22;9760;50.944;5.304;2023-09-08T00:40:49;19.80;99.90
19252;DHT22;9760;50.944;5.304;2023-09-08T00:43:17;19.80;99.90
19252;DHT22;9760;50.944;5.304;2023-09-08T00:45:43;19.80;99.90
19252;DHT22;9760;50.944;5.304;2023-09-08T00:48:09;19.80;99.90
19252;DHT22;9760;50.944;5.304;2023-09-08T00:50:36;19.80;99.90
19252;DHT22;9760;50.944;5.304;2023-09-08T00:53:03;19.80;99.90
19252;DHT22;9760;50.944;5.304;2023-09-08T00:55:30;19.80;99.90
19252;DHT22;9760;50.944;5.304;2023-09-08T00:57:56;19.70;99.90
19252;DHT22;9760;50.944;5.304;2023-09-08T01:00:22;19.70;99.90
19252;DHT22;9760;50.944;5.304;2023-09-08T01:02:47;19.70;99.90
19252;DHT22;9760;50.944;5.304;2023-09-08T01:05:13;19.60;99.90
19252;DHT22;9760;50.944;5.304;2023-09-08T01:07:40;19.50;99.90
19252;DHT22;9760;50.944;5.304;2023-09-08T01:10:06;19.40;99.90
19252;DHT22;9760;50.944;5.304;2023-09-08T01:12:33;19.50;99.90
19252;DHT22;9760;50.944;5.304;2023-09-08T01:15:01;19.50;99.90
19252;DHT22;9760;50.944;5.304;2023-09-08T01:17:26;19.60;99.90
19252;DHT22;9760;50.944;5.304;2023-09-08T01:19:55;19.60;99.90
19252;DHT22;9760;50.944;5.304;2023-09-08T01:22:41;19.70;99.90
19252;DHT22;9760;50.944;5.304;2023-09-08T01:27:41;19.60;99.90
19252;DHT22;9760;50.944;5.304;2023-09-08T01:30:09;19.60;99.90
19252;DHT22;9760;50.944;5.304;2023-09-08T01:32:35;19.60;99.90
19252;DHT22;9760;50.944;5.304;2023-09-08T01:35:01;19.60;99.90
19252;DHT22;9760;50.944;5.304;2023-09-08T01:37:27;19.50;99.90
19252;DHT22;9760;50.944;5.304;2023-09-08T01:39:53;19.40;99.90
19252;DHT22;9760;50.944;5.304;2023-09-08T01:42:19;19.30;99.90
19252;DHT22;9760;50.944;5.304;2023-09-08T01:44:44;19.20;99.90
19252;DHT22;9760;50.944;5.304;2023-09-08T01:47:10;19.20;99.90
19252;DHT22;9760;50.944;5.304;2023-09-08T01:49:35;19.20;99.90
19252;DHT22;9760;50.944;5.304;2023-09-08T01:52:01;19.10;99.90
19252;DHT22;9760;50.944;5.304;2023-09-08T01:54:27;19.00;99.90
19252;DHT22;9760;50.944;5.304;2023-09-08T01:56:53;19.00;99.90
19252;DHT22;9760;50.944;5.304;2023-09-08T01:59:18;18.90;99.90
19252;DHT22;9760;50.944;5.304;2023-09-08T02:01:44;18.90;99.90
19252;DHT22;9760;50.944;5.304;2023-09-08T02:04:10;19.00;99.90
19252;DHT22;9760;50.944;5.304;2023-09-08T02:06:35;18.90;99.90
19252;DHT22;9760;50.944;5.304;2023-09-08T02:09:01;18.90;99.90
19252;DHT22;9760;50.944;5.304;2023-09-08T02:11:26;18.90;99.90
19252;DHT22;9760;50.944;5.304;2023-09-08T02:13:52;18.90;99.90
19252;DHT22;9760;50.944;5.304;2023-09-08T02:16:18;18.90;99.90
19252;DHT22;9760;50.944;5.304;2023-09-08T02:18:44;18.90;99.90
19252;DHT22;9760;50.944;5.304;2023-09-08T02:21:11;18.90;99.90
19252;DHT22;9760;50.944;5.304;2023-09-08T02:23:37;18.80;99.90
19252;DHT22;9760;50.944;5.304;2023-09-08T02:26:03;18.70;99.90
19252;DHT22;9760;50.944;5.304;2023-09-08T02:28:29;18.60;99.90
19252;DHT22;9760;50.944;5.304;2023-09-08T02:30:54;18.60;99.90
19252;DHT22;9760;50.944;5.304;2023-09-08T02:33:20;18.70;99.90
19252;DHT22;9760;50.944;5.304;2023-09-08T02:35:46;18.70;99.90
19252;DHT22;9760;50.944;5.304;2023-09-08T02:38:12;18.70;99.90
19252;DHT22;9760;50.944;5.304;2023-09-08T02:40:37;18.70;99.90
19252;DHT22;9760;50.944;5.304;2023-09-08T02:43:03;18.60;99.90
19252;DHT22;9760;50.944;5.304;2023-09-08T02:45:29;18.60;99.90
19252;DHT22;9760;50.944;5.304;2023-09-08T02:47:55;18.60;99.90
19252;DHT22;9760;50.944;5.304;2023-09-08T02:50:21;18.50;99.90
19252;DHT22;9760;50.944;5.304;2023-09-08T02:52:47;18.50;99.90
19252;DHT22;9760;50.944;5.304;2023-09-08T02:55:13;18.50;99.90
19252;DHT22;9760;50.944;5.304;2023-09-08T02:57:39;18.40;99.90
19252;DHT22;9760;50.944;5.304;2023-09-08T03:00:05;18.50;99.90
19252;DHT22;9760;50.944;5.304;2023-09-08T03:02:33;18.60;99.90
19252;DHT22;9760;50.944;5.304;2023-09-08T03:04:59;18.60;99.90
19252;DHT22;9760;50.944;5.304;2023-09-08T03:07:26;18.70;99.90
19252;DHT22;9760;50.944;5.304;2023-09-08T03:09:52;18.70;99.90
19252;DHT22;9760;50.944;5.304;2023-09-08T03:12:18;18.60;99.90
19252;DHT22;9760;50.944;5.304;2023-09-08T03:14:43;18.50;99.90
19252;DHT22;9760;50.944;5.304;2023-09-08T03:17:10;18.50;99.90
19252;DHT22;9760;50.944;5.304;2023-09-08T03:19:36;18.60;99.90
19252;DHT22;9760;50.944;5.304;2023-09-08T03:22:01;18.60;99.90
19252;DHT22;9760;50.944;5.304;2023-09-08T03:24:27;18.60;99.90
19252;DHT22;9760;50.944;5.304;2023-09-08T03:26:53;18.60;99.90
19252;DHT22;9760;50.944;5.304;2023-09-08T03:29:18;18.60;99.90
19252;DHT22;9760;50.944;5.304;2023-09-08T03:31:44;18.50;99.90
19252;DHT22;9760;50.944;5.304;2023-09-08T03:34:10;18.50;99.90
19252;DHT22;9760;50.944;5.304;2023-09-08T03:36:35;18.50;99.90
19252;DHT22;9760;50.944;5.304;2023-09-08T03:39:02;18.50;99.90
19252;DHT22;9760;50.944;5.304;2023-09-08T03:41:27;18.60;99.90
19252;DHT22;9760;50.944;5.304;2023-09-08T03:43:53;18.60;99.90
19252;DHT22;9760;50.944;5.304;2023-09-08T03:46:19;18.60;99.90
19252;DHT22;9760;50.944;5.304;2023-09-08T03:48:44;18.60;99.90
19252;DHT22;9760;50.944;5.304;2023-09-08T03:51:10;18.60;99.90
19252;DHT22;9760;50.944;5.304;2023-09-08T03:53:36;18.50;99.90
19252;DHT22;9760;50.944;5.304;2023-09-08T03:56:01;18.50;99.90
19252;DHT22;9760;50.944;5.304;2023-09-08T03:58:27;18.50;99.90
19252;DHT22;9760;50.944;5.304;2023-09-08T04:00:53;18.50;99.90
19252;DHT22;9760;50.944;5.304;2023-09-08T04:03:18;18.50;99.90
19252;DHT22;9760;50.944;5.304;2023-09-08T04:05:44;18.50;99.90
19252;DHT22;9760;50.944;5.304;2023-09-08T04:08:09;18.60;99.90
19252;DHT22;9760;50.944;5.304;2023-09-08T04:10:35;18.60;99.90
19252;DHT22;9760;50.944;5.304;2023-09-08T04:13:01;18.60;99.90
19252;DHT22;9760;50.944;5.304;2023-09-08T04:15:26;18.60;99.90
19252;DHT22;9760;50.944;5.304;2023-09-08T04:17:52;18.60;99.90
19252;DHT22;9760;50.944;5.304;2023-09-08T04:20:18;18.50;99.90
19252;DHT22;9760;50.944;5.304;2023-09-08T04:22:43;18.40;99.90
19252;DHT22;9760;50.944;5.304;2023-09-08T04:25:10;18.40;99.90
19252;DHT22;9760;50.944;5.304;2023-09-08T04:27:35;18.40;99.90
19252;DHT22;9760;50.944;5.304;2023-09-08T04:30:05;18.40;99.90
19252;DHT22;9760;50.944;5.304;2023-09-08T04:32:32;18.30;99.90
19252;DHT22;9760;50.944;5.304;2023-09-08T04:34:58;18.30;99.90
19252;DHT22;9760;50.944;5.304;2023-09-08T04:37:23;18.40;99.90
19252;DHT22;9760;50.944;5.304;2023-09-08T04:39:49;18.40;99.90
19252;DHT22;9760;50.944;5.304;2023-09-08T04:42:15;18.40;99.90
19252;DHT22;9760;50.944;5.304;2023-09-08T04:44:40;18.40;99.90
19252;DHT22;9760;50.944;5.304;2023-09-08T04:47:06;18.40;99.90
19252;DHT22;9760;50.944;5.304;2023-09-08T04:49:33;18.40;99.90
19252;DHT22;9760;50.944;5.304;2023-09-08T04:51:59;18.30;99.90
19252;DHT22;9760;50.944;5.304;2023-09-08T04:54:24;18.20;99.90
19252;DHT22;9760;50.944;5.304;2023-09-08T04:56:53;18.20;99.90
19252;DHT22;9760;50.944;5.304;2023-09-08T04:59:19;18.00;99.90
19252;DHT22;9760;50.944;5.304;2023-09-08T05:01:45;18.10;99.90
19252;DHT22;9760;50.944;5.304;2023-09-08T05:04:11;18.20;99.90
19252;DHT22;9760;50.944;5.304;2023-09-08T05:06:37;18.20;99.90
19252;DHT22;9760;50.944;5.304;2023-09-08T05:09:03;18.20;99.90
19252;DHT22;9760;50.944;5.304;2023-09-08T05:11:28;18.20;99.90
19252;DHT22;9760;50.944;5.304;2023-09-08T05:13:54;18.20;99.90
19252;DHT22;9760;50.944;5.304;2023-09-08T05:16:20;18.20;99.90
19252;DHT22;9760;50.944;5.304;2023-09-08T05:19:01;18.20;99.90
19252;DHT22;9760;50.944;5.304;2023-09-08T05:21:27;18.20;99.90
19252;DHT22;9760;50.944;5.304;2023-09-08T05:23:53;18.20;99.90
19252;DHT22;9760;50.944;5.304;2023-09-08T05:26:18;18.10;99.90
19252;DHT22;9760;50.944;5.304;2023-09-08T05:28:44;18.20;99.90
19252;DHT22;9760;50.944;5.304;2023-09-08T05:31:09;18.10;99.90
19252;DHT22;9760;50.944;5.304;2023-09-08T05:33:35;18.20;99.90
19252;DHT22;9760;50.944;5.304;2023-09-08T05:36:01;18.30;99.90
19252;DHT22;9760;50.944;5.304;2023-09-08T05:38:26;18.30;99.90
19252;DHT22;9760;50.944;5.304;2023-09-08T05:40:53;18.40;99.90
19252;DHT22;9760;50.944;5.304;2023-09-08T05:43:19;18.40;99.90
19252;DHT22;9760;50.944;5.304;2023-09-08T05:45:44;18.50;99.90
19252;DHT22;9760;50.944;5.304;2023-09-08T05:48:10;18.50;99.90
19252;DHT22;9760;50.944;5.304;2023-09-08T05:50:36;18.50;99.90
19252;DHT22;9760;50.944;5.304;2023-09-08T05:53:02;18.50;99.90
19252;DHT22;9760;50.944;5.304;2023-09-08T05:55:28;18.60;99.90
19252;DHT22;9760;50.944;5.304;2023-09-08T05:57:53;18.70;99.90
19252;DHT22;9760;50.944;5.304;2023-09-08T06:00:19;18.60;99.90
19252;DHT22;9760;50.944;5.304;2023-09-08T06:02:45;18.60;99.90
19252;DHT22;9760;50.944;5.304;2023-09-08T06:05:11;18.70;99.90
19252;DHT22;9760;50.944;5.304;2023-09-08T06:07:36;18.70;99.90
19252;DHT22;9760;50.944;5.304;2023-09-08T06:10:02;18.90;99.90
19252;DHT22;9760;50.944;5.304;2023-09-08T06:12:28;19.00;99.90
19252;DHT22;9760;50.944;5.304;2023-09-08T06:14:54;19.10;99.90
19252;DHT22;9760;50.944;5.304;2023-09-08T06:17:20;19.30;99.90
19252;DHT22;9760;50.944;5.304;2023-09-08T06:19:45;19.30;99.90
19252;DHT22;9760;50.944;5.304;2023-09-08T06:22:11;19.40;99.90
19252;DHT22;9760;50.944;5.304;2023-09-08T06:24:37;19.50;99.90
19252;DHT22;9760;50.944;5.304;2023-09-08T06:27:03;19.60;99.90
19252;DHT22;9760;50.944;5.304;2023-09-08T06:29:28;19.70;99.90
19252;DHT22;9760;50.944;5.304;2023-09-08T06:31:54;19.80;99.90
19252;DHT22;9760;50.944;5.304;2023-09-08T06:34:20;19.90;99.90
19252;DHT22;9760;50.944;5.304;2023-09-08T06:36:48;20.00;99.90
19252;DHT22;9760;50.944;5.304;2023-09-08T06:39:14;20.10;99.90
19252;DHT22;9760;50.944;5.304;2023-09-08T06:41:40;20.20;99.90
19252;DHT22;9760;50.944;5.304;2023-09-08T06:44:05;20.30;99.90
19252;DHT22;9760;50.944;5.304;2023-09-08T06:46:32;20.40;99.90
19252;DHT22;9760;50.944;5.304;2023-09-08T06:48:57;20.60;99.90
19252;DHT22;9760;50.944;5.304;2023-09-08T06:51:23;20.70;99.90
19252;DHT22;9760;50.944;5.304;2023-09-08T06:53:56;20.80;99.90
19252;DHT22;9760;50.944;5.304;2023-09-08T06:56:22;20.90;99.90
19252;DHT22;9760;50.944;5.304;2023-09-08T06:58:48;21.00;99.90
19252;DHT22;9760;50.944;5.304;2023-09-08T07:01:13;21.00;99.90
19252;DHT22;9760;50.944;5.304;2023-09-08T07:03:39;21.20;99.90
19252;DHT22;9760;50.944;5.304;2023-09-08T07:06:05;21.30;99.90
19252;DHT22;9760;50.944;5.304;2023-09-08T07:08:30;21.30;99.90
19252;DHT22;9760;50.944;5.304;2023-09-08T07:10:56;21.50;99.90
19252;DHT22;9760;50.944;5.304;2023-09-08T07:13:22;21.60;99.90
19252;DHT22;9760;50.944;5.304;2023-09-08T07:15:47;21.70;99.90
19252;DHT22;9760;50.944;5.304;2023-09-08T07:18:13;21.80;99.90
19252;DHT22;9760;50.944;5.304;2023-09-08T07:20:39;21.80;99.90
19252;DHT22;9760;50.944;5.304;2023-09-08T07:23:05;21.90;99.90
19252;DHT22;9760;50.944;5.304;2023-09-08T07:25:31;22.10;99.90
19252;DHT22;9760;50.944;5.304;2023-09-08T07:27:56;22.20;99.90
19252;DHT22;9760;50.944;5.304;2023-09-08T07:30:22;22.30;99.90
19252;DHT22;9760;50.944;5.304;2023-09-08T07:32:48;22.50;99.90
19252;DHT22;9760;50.944;5.304;2023-09-08T07:35:13;22.50;99.90
19252;DHT22;9760;50.944;5.304;2023-09-08T07:37:41;22.60;99.90
19252;DHT22;9760;50.944;5.304;2023-09-08T07:40:11;22.70;99.90
19252;DHT22;9760;50.944;5.304;2023-09-08T07:42:37;22.80;99.90
19252;DHT22;9760;50.944;5.304;2023-09-08T07:45:03;22.90;99.90
19252;DHT22;9760;50.944;5.304;2023-09-08T07:47:28;23.00;99.90
19252;DHT22;9760;50.944;5.304;2023-09-08T07:50:27;23.10;99.90
19252;DHT22;9760;50.944;5.304;2023-09-08T07:52:53;23.20;99.90
19252;DHT22;9760;50.944;5.304;2023-09-08T07:55:20;23.20;99.90
19252;DHT22;9760;50.944;5.304;2023-09-08T07:57:50;23.20;99.90
19252;DHT22;9760;50.944;5.304;2023-09-08T08:00:16;23.30;99.90
19252;DHT22;9760;50.944;5.304;2023-09-08T08:02:54;23.40;99.90
19252;DHT22;9760;50.944;5.304;2023-09-08T08:05:21;23.50;99.90
19252;DHT22;9760;50.944;5.304;2023-09-08T08:07:46;23.60;99.90
19252;DHT22;9760;50.944;5.304;2023-09-08T08:10:12;23.70;99.90
19252;DHT22;9760;50.944;5.304;2023-09-08T08:12:39;23.80;99.90
19252;DHT22;9760;50.944;5.304;2023-09-08T08:15:06;23.90;99.90
19252;DHT22;9760;50.944;5.304;2023-09-08T08:17:32;24.00;99.90
19252;DHT22;9760;50.944;5.304;2023-09-08T08:19:58;24.10;99.90
19252;DHT22;9760;50.944;5.304;2023-09-08T08:22:26;24.20;99.90
19252;DHT22;9760;50.944;5.304;2023-09-08T08:24:52;24.20;99.90
19252;DHT22;9760;50.944;5.304;2023-09-08T08:27:17;24.40;99.90
19252;DHT22;9760;50.944;5.304;2023-09-08T08:29:43;24.40;99.90
19252;DHT22;9760;50.944;5.304;2023-09-08T08:32:09;24.40;99.90
19252;DHT22;9760;50.944;5.304;2023-09-08T08:34:34;24.40;99.90
19252;DHT22;9760;50.944;5.304;2023-09-08T08:37:00;24.40;99.90
19252;DHT22;9760;50.944;5.304;2023-09-08T08:39:26;24.50;99.90
19252;DHT22;9760;50.944;5.304;2023-09-08T08:41:51;24.60;99.90
19252;DHT22;9760;50.944;5.304;2023-09-08T08:44:17;24.70;99.90
19252;DHT22;9760;50.944;5.304;2023-09-08T08:46:45;24.80;99.90
19252;DHT22;9760;50.944;5.304;2023-09-08T08:49:14;24.90;99.90
19252;DHT22;9760;50.944;5.304;2023-09-08T08:51:44;25.00;99.90
19252;DHT22;9760;50.944;5.304;2023-09-08T08:54:11;25.00;99.90
19252;DHT22;9760;50.944;5.304;2023-09-08T08:56:38;25.00;99.90
19252;DHT22;9760;50.944;5.304;2023-09-08T08:59:04;25.10;99.90
19252;DHT22;9760;50.944;5.304;2023-09-08T09:01:30;25.20;99.90
19252;DHT22;9760;50.944;5.304;2023-09-08T09:03:57;25.30;99.90
19252;DHT22;9760;50.944;5.304;2023-09-08T09:06:23;25.40;99.90
19252;DHT22;9760;50.944;5.304;2023-09-08T09:08:49;25.40;99.90
19252;DHT22;9760;50.944;5.304;2023-09-08T09:11:14;25.30;99.90
19252;DHT22;9760;50.944;5.304;2023-09-08T09:13:40;25.50;99.90
19252;DHT22;9760;50.944;5.304;2023-09-08T09:16:06;25.70;99.90
19252;DHT22;9760;50.944;5.304;2023-09-08T09:18:57;25.80;99.90
19252;DHT22;9760;50.944;5.304;2023-09-08T09:21:23;26.00;99.90
19252;DHT22;9760;50.944;5.304;2023-09-08T09:23:49;25.90;99.90
19252;DHT22;9760;50.944;5.304;2023-09-08T09:26:26;25.90;99.90
19252;DHT22;9760;50.944;5.304;2023-09-08T09:28:52;26.10;99.90
19252;DHT22;9760;50.944;5.304;2023-09-08T09:31:23;26.20;99.90
19252;DHT22;9760;50.944;5.304;2023-09-08T09:34:01;26.40;99.90
19252;DHT22;9760;50.944;5.304;2023-09-08T09:36:28;26.50;99.90
19252;DHT22;9760;50.944;5.304;2023-09-08T09:38:58;26.60;99.90
19252;DHT22;9760;50.944;5.304;2023-09-08T09:41:24;26.60;99.90
19252;DHT22;9760;50.944;5.304;2023-09-08T09:43:49;26.70;99.90
19252;DHT22;9760;50.944;5.304;2023-09-08T09:46:15;26.90;99.90
19252;DHT22;9760;50.944;5.304;2023-09-08T09:48:41;27.00;99.90
19252;DHT22;9760;50.944;5.304;2023-09-08T09:51:16;27.00;99.90
19252;DHT22;9760;50.944;5.304;2023-09-08T09:53:42;27.10;99.90
19252;DHT22;9760;50.944;5.304;2023-09-08T09:56:10;27.00;99.90
19252;DHT22;9760;50.944;5.304;2023-09-08T09:58:37;27.20;99.90
19252;DHT22;9760;50.944;5.304;2023-09-08T10:01:04;27.40;99.90
19252;DHT22;9760;50.944;5.304;2023-09-08T10:03:30;27.60;99.90
19252;DHT22;9760;50.944;5.304;2023-09-08T10:05:59;27.60;99.90
19252;DHT22;9760;50.944;5.304;2023-09-08T10:08:25;27.70;99.90
19252;DHT22;9760;50.944;5.304;2023-09-08T10:10:50;27.70;99.90
19252;DHT22;9760;50.944;5.304;2023-09-08T10:13:27;27.70;99.90
19252;DHT22;9760;50.944;5.304;2023-09-08T10:15:57;27.90;99.90
19252;DHT22;9760;50.944;5.304;2023-09-08T10:18:24;28.20;99.90
19252;DHT22;9760;50.944;5.304;2023-09-08T10:20:52;28.30;99.90
19252;DHT22;9760;50.944;5.304;2023-09-08T10:23:31;28.50;99.90
19252;DHT22;9760;50.944;5.304;2023-09-08T10:26:02;28.80;99.90
19252;DHT22;9760;50.944;5.304;2023-09-08T10:28:33;29.00;99.90
19252;DHT22;9760;50.944;5.304;2023-09-08T10:31:00;29.80;99.90
19252;DHT22;9760;50.944;5.304;2023-09-08T10:33:26;30.70;99.90
19252;DHT22;9760;50.944;5.304;2023-09-08T10:35:52;31.50;99.90
19252;DHT22;9760;50.944;5.304;2023-09-08T10:38:26;31.90;99.90
19252;DHT22;9760;50.944;5.304;2023-09-08T10:40:53;32.00;99.90
19252;DHT22;9760;50.944;5.304;2023-09-08T10:43:19;31.90;99.90
19252;DHT22;9760;50.944;5.304;2023-09-08T10:45:46;32.20;99.90
19252;DHT22;9760;50.944;5.304;2023-09-08T10:48:12;32.50;99.90
19252;DHT22;9760;50.944;5.304;2023-09-08T10:50:40;32.80;99.90
19252;DHT22;9760;50.944;5.304;2023-09-08T10:53:18;32.70;99.90
19252;DHT22;9760;50.944;5.304;2023-09-08T10:55:49;32.50;99.90
19252;DHT22;9760;50.944;5.304;2023-09-08T10:58:29;32.80;99.90
19252;DHT22;9760;50.944;5.304;2023-09-08T11:00:59;32.70;99.90
19252;DHT22;9760;50.944;5.304;2023-09-08T11:03:47;32.60;99.90
19252;DHT22;9760;50.944;5.304;2023-09-08T11:06:19;33.10;99.90
19252;DHT22;9760;50.944;5.304;2023-09-08T11:08:47;32.90;99.90
19252;DHT22;9760;50.944;5.304;2023-09-08T11:11:15;32.90;99.90
19252;DHT22;9760;50.944;5.304;2023-09-08T11:13:41;32.90;99.90
19252;DHT22;9760;50.944;5.304;2023-09-08T11:16:07;33.10;99.90
19252;DHT22;9760;50.944;5.304;2023-09-08T11:18:35;33.20;99.90
19252;DHT22;9760;50.944;5.304;2023-09-08T11:21:02;33.30;99.90
19252;DHT22;9760;50.944;5.304;2023-09-08T11:23:28;33.10;99.90
19252;DHT22;9760;50.944;5.304;2023-09-08T11:25:54;32.90;99.90
19252;DHT22;9760;50.944;5.304;2023-09-08T11:28:24;32.70;99.90
19252;DHT22;9760;50.944;5.304;2023-09-08T11:30:50;32.80;99.90
19252;DHT22;9760;50.944;5.304;2023-09-08T11:35:41;33.10;99.90
19252;DHT22;9760;50.944;5.304;2023-09-08T11:38:10;32.70;99.90
19252;DHT22;9760;50.944;5.304;2023-09-08T11:40:37;32.70;99.90
19252;DHT22;9760;50.944;5.304;2023-09-08T11:43:04;32.10;99.90
19252;DHT22;9760;50.944;5.304;2023-09-08T11:45:30;31.40;99.90
19252;DHT22;9760;50.944;5.304;2023-09-08T11:47:57;31.10;99.90
19252;DHT22;9760;50.944;5.304;2023-09-08T11:50:23;30.70;99.90
19252;DHT22;9760;50.944;5.304;2023-09-08T11:52:50;30.40;99.90
19252;DHT22;9760;50.944;5.304;2023-09-08T11:55:18;30.00;99.90
19252;DHT22;9760;50.944;5.304;2023-09-08T11:57:47;29.80;99.90
19252;DHT22;9760;50.944;5.304;2023-09-08T12:00:15;29.60;99.90
19252;DHT22;9760;50.944;5.304;2023-09-08T12:02:44;29.60;99.90
19252;DHT22;9760;50.944;5.304;2023-09-08T12:05:26;29.50;99.90
19252;DHT22;9760;50.944;5.304;2023-09-08T12:07:57;29.40;99.90
19252;DHT22;9760;50.944;5.304;2023-09-08T12:10:24;29.40;99.90
19252;DHT22;9760;50.944;5.304;2023-09-08T12:12:52;29.50;99.90
19252;DHT22;9760;50.944;5.304;2023-09-08T12:15:34;29.60;99.90
19252;DHT22;9760;50.944;5.304;2023-09-08T12:18:04;29.60;99.90
19252;DHT22;9760;50.944;5.304;2023-09-08T12:20:31;29.60;99.90
19252;DHT22;9760;50.944;5.304;2023-09-08T12:23:03;29.80;99.90
19252;DHT22;9760;50.944;5.304;2023-09-08T12:25:30;29.80;99.90
19252;DHT22;9760;50.944;5.304;2023-09-08T12:27:57;29.70;99.90
19252;DHT22;9760;50.944;5.304;2023-09-08T12:30:23;29.70;99.90
19252;DHT22;9760;50.944;5.304;2023-09-08T12:32:58;29.70;99.90
19252;DHT22;9760;50.944;5.304;2023-09-08T12:35:25;29.90;99.90
19252;DHT22;9760;50.944;5.304;2023-09-08T12:38:02;29.90;99.90
19252;DHT22;9760;50.944;5.304;2023-09-08T12:40:29;29.90;99.90
19252;DHT22;9760;50.944;5.304;2023-09-08T12:42:56;29.90;99.90
19252;DHT22;9760;50.944;5.304;2023-09-08T12:45:24;29.90;99.90
19252;DHT22;9760;50.944;5.304;2023-09-08T12:47:51;29.80;99.90
19252;DHT22;9760;50.944;5.304;2023-09-08T12:50:17;29.70;99.90
19252;DHT22;9760;50.944;5.304;2023-09-08T12:52:42;29.80;99.90
19252;DHT22;9760;50.944;5.304;2023-09-08T12:55:08;29.70;99.90
19252;DHT22;9760;50.944;5.304;2023-09-08T12:57:35;29.80;99.90
19252;DHT22;9760;50.944;5.304;2023-09-08T13:00:02;29.80;99.90
19252;DHT22;9760;50.944;5.304;2023-09-08T13:02:28;29.80;99.90
19252;DHT22;9760;50.944;5.304;2023-09-08T13:04:53;29.70;99.90
19252;DHT22;9760;50.944;5.304;2023-09-08T13:07:20;29.80;99.90
19252;DHT22;9760;50.944;5.304;2023-09-08T13:09:46;29.90;99.90
19252;DHT22;9760;50.944;5.304;2023-09-08T13:12:12;29.90;99.90
19252;DHT22;9760;50.944;5.304;2023-09-08T13:14:39;30.00;99.90
19252;DHT22;9760;50.944;5.304;2023-09-08T13:17:05;30.00;99.90
19252;DHT22;9760;50.944;5.304;2023-09-08T13:19:32;29.90;99.90
19252;DHT22;9760;50.944;5.304;2023-09-08T13:21:58;29.80;99.90
19252;DHT22;9760;50.944;5.304;2023-09-08T13:24:24;29.80;99.90
19252;DHT22;9760;50.944;5.304;2023-09-08T13:26:49;29.70;99.90
19252;DHT22;9760;50.944;5.304;2023-09-08T13:29:16;29.80;99.90
19252;DHT22;9760;50.944;5.304;2023-09-08T13:31:42;29.90;99.90
19252;DHT22;9760;50.944;5.304;2023-09-08T13:34:08;30.00;99.90
19252;DHT22;9760;50.944;5.304;2023-09-08T13:36:33;30.00;99.90
19252;DHT22;9760;50.944;5.304;2023-09-08T13:38:59;30.10;99.90
19252;DHT22;9760;50.944;5.304;2023-09-08T13:44:09;30.00;99.90
19252;DHT22;9760;50.944;5.304;2023-09-08T13:46:34;30.20;99.90
19252;DHT22;9760;50.944;5.304;2023-09-08T13:49:00;30.20;99.90
19252;DHT22;9760;50.944;5.304;2023-09-08T13:51:26;30.20;99.90
19252;DHT22;9760;50.944;5.304;2023-09-08T13:53:51;30.30;99.90
19252;DHT22;9760;50.944;5.304;2023-09-08T13:56:17;30.20;99.90
19252;DHT22;9760;50.944;5.304;2023-09-08T13:58:43;30.20;99.90
19252;DHT22;9760;50.944;5.304;2023-09-08T14:01:11;30.20;99.90
19252;DHT22;9760;50.944;5.304;2023-09-08T14:03:36;30.20;99.90
19252;DHT22;9760;50.944;5.304;2023-09-08T14:06:02;30.10;99.90
19252;DHT22;9760;50.944;5.304;2023-09-08T14:08:28;30.10;99.90
19252;DHT22;9760;50.944;5.304;2023-09-08T14:10:54;30.10;99.90
19252;DHT22;9760;50.944;5.304;2023-09-08T14:13:19;30.10;99.90
19252;DHT22;9760;50.944;5.304;2023-09-08T14:15:45;30.20;99.90
19252;DHT22;9760;50.944;5.304;2023-09-08T14:18:11;30.20;99.90
19252;DHT22;9760;50.944;5.304;2023-09-08T14:20:37;30.20;99.90
19252;DHT22;9760;50.944;5.304;2023-09-08T14:23:03;30.20;99.90
19252;DHT22;9760;50.944;5.304;2023-09-08T14:25:28;30.20;99.90
19252;DHT22;9760;50.944;5.304;2023-09-08T14:27:54;30.20;99.90
19252;DHT22;9760;50.944;5.304;2023-09-08T14:30:19;30.20;99.90
19252;DHT22;9760;50.944;5.304;2023-09-08T14:32:45;30.20;99.90
19252;DHT22;9760;50.944;5.304;2023-09-08T14:35:11;30.10;99.90
19252;DHT22;9760;50.944;5.304;2023-09-08T14:37:38;30.10;99.90
19252;DHT22;9760;50.944;5.304;2023-09-08T14:40:04;30.20;99.90
19252;DHT22;9760;50.944;5.304;2023-09-08T14:42:30;30.20;99.90
19252;DHT22;9760;50.944;5.304;2023-09-08T14:44:55;30.20;99.90
19252;DHT22;9760;50.944;5.304;2023-09-08T14:47:21;30.20;99.90
19252;DHT22;9760;50.944;5.304;2023-09-08T14:49:46;30.30;99.90
19252;DHT22;9760;50.944;5.304;2023-09-08T14:52:12;30.20;99.90
19252;DHT22;9760;50.944;5.304;2023-09-08T14:54:38;30.20;99.90
19252;DHT22;9760;50.944;5.304;2023-09-08T14:57:04;30.20;99.90
19252;DHT22;9760;50.944;5.304;2023-09-08T14:59:29;30.30;99.90
19252;DHT22;9760;50.944;5.304;2023-09-08T15:01:55;30.30;99.90
19252;DHT22;9760;50.944;5.304;2023-09-08T15:04:21;30.30;99.90
19252;DHT22;9760;50.944;5.304;2023-09-08T15:06:47;30.40;99.90
19252;DHT22;9760;50.944;5.304;2023-09-08T15:09:17;30.50;99.90
19252;DHT22;9760;50.944;5.304;2023-09-08T15:11:42;30.60;99.90
19252;DHT22;9760;50.944;5.304;2023-09-08T15:14:09;30.50;99.90
19252;DHT22;9760;50.944;5.304;2023-09-08T15:16:34;30.50;99.90
19252;DHT22;9760;50.944;5.304;2023-09-08T15:19:00;30.30;99.90
19252;DHT22;9760;50.944;5.304;2023-09-08T15:21:26;30.30;99.90
19252;DHT22;9760;50.944;5.304;2023-09-08T15:23:55;30.40;99.90
19252;DHT22;9760;50.944;5.304;2023-09-08T15:26:21;30.50;99.90
19252;DHT22;9760;50.944;5.304;2023-09-08T15:28:46;30.50;99.90
19252;DHT22;9760;50.944;5.304;2023-09-08T15:31:15;30.60;99.90
19252;DHT22;9760;50.944;5.304;2023-09-08T15:33:41;30.50;99.90
19252;DHT22;9760;50.944;5.304;2023-09-08T15:36:07;30.40;99.90
19252;DHT22;9760;50.944;5.304;2023-09-08T15:38:32;30.40;99.90
19252;DHT22;9760;50.944;5.304;2023-09-08T15:43:37;30.40;99.90
19252;DHT22;9760;50.944;5.304;2023-09-08T15:46:04;30.50;99.90
19252;DHT22;9760;50.944;5.304;2023-09-08T15:48:30;30.50;99.90
19252;DHT22;9760;50.944;5.304;2023-09-08T15:50:55;30.60;99.90
19252;DHT22;9760;50.944;5.304;2023-09-08T15:53:21;30.60;99.90